sensor_id;sensor_type;location;lat;lon;timestamp;P1;durP1;ratioP1;P2;durP2;ratioP2
62151;SDS011;48139;47.474;19.034;2022-11-28T04:40:04;33.38;;;15.27;;
62151;SDS011;48139;47.474;19.034;2022-11-28T04:43:19;30.10;;;14.73;;
62151;SDS011;48139;47.474;19.034;2022-11-28T04:46:31;36.78;;;15.68;;
62151;SDS011;48139;47.474;19.034;2022-11-28T04:49:39;35.13;;;15.15;;
62151;SDS011;48139;47.474;19.034;2022-11-28T04:55:45;24.52;;;12.23;;
62151;SDS011;48139;47.474;19.034;2022-11-28T04:58:53;26.40;;;13.38;;
62151;SDS011;48139;47.474;19.034;2022-11-28T05:01:56;32.83;;;12.70;;
62151;SDS011;48139;47.474;19.034;2022-11-28T05:05:22;29.80;;;13.20;;
62151;SDS011;48139;47.474;19.034;2022-11-28T05:08:27;33.05;;;15.13;;
62151;SDS011;48139;47.474;19.034;2022-11-28T05:11:30;28.12;;;13.65;;
62151;SDS011;48139;47.474;19.034;2022-11-28T05:14:33;27.15;;;12.30;;
62151;SDS011;48139;47.474;19.034;2022-11-28T05:17:36;27.40;;;13.43;;
62151;SDS011;48139;47.474;19.034;2022-11-28T05:20:43;31.48;;;13.52;;
62151;SDS011;48139;47.474;19.034;2022-11-28T05:23:46;26.40;;;14.07;;
62151;SDS011;48139;47.474;19.034;2022-11-28T05:26:49;29.12;;;14.38;;
62151;SDS011;48139;47.474;19.034;2022-11-28T05:29:51;29.10;;;12.95;;
62151;SDS011;48139;47.474;19.034;2022-11-28T05:32:56;33.00;;;13.48;;
62151;SDS011;48139;47.474;19.034;2022-11-28T05:36:06;35.22;;;15.77;;
62151;SDS011;48139;47.474;19.034;2022-11-28T05:39:15;27.23;;;14.70;;
62151;SDS011;48139;47.474;19.034;2022-11-28T05:42:18;30.77;;;14.93;;
62151;SDS011;48139;47.474;19.034;2022-11-28T05:45:21;29.25;;;13.65;;
62151;SDS011;48139;47.474;19.034;2022-11-28T05:48:24;32.93;;;13.13;;
62151;SDS011;48139;47.474;19.034;2022-11-28T05:51:27;30.63;;;15.60;;
62151;SDS011;48139;47.474;19.034;2022-11-28T05:54:29;30.80;;;15.07;;
62151;SDS011;48139;47.474;19.034;2022-11-28T05:57:35;35.85;;;16.40;;
62151;SDS011;48139;47.474;19.034;2022-11-28T06:00:40;32.65;;;14.65;;
62151;SDS011;48139;47.474;19.034;2022-11-28T06:03:43;48.07;;;18.17;;
62151;SDS011;48139;47.474;19.034;2022-11-28T06:06:47;33.95;;;17.05;;
62151;SDS011;48139;47.474;19.034;2022-11-28T06:09:51;33.63;;;15.13;;
62151;SDS011;48139;47.474;19.034;2022-11-28T06:12:53;35.65;;;16.58;;
62151;SDS011;48139;47.474;19.034;2022-11-28T06:15:56;37.33;;;18.70;;
62151;SDS011;48139;47.474;19.034;2022-11-28T06:19:00;30.83;;;17.27;;
62151;SDS011;48139;47.474;19.034;2022-11-28T06:22:04;37.97;;;17.87;;
62151;SDS011;48139;47.474;19.034;2022-11-28T06:25:07;39.45;;;18.33;;
62151;SDS011;48139;47.474;19.034;2022-11-28T06:28:09;42.53;;;18.27;;
62151;SDS011;48139;47.474;19.034;2022-11-28T06:31:16;36.33;;;22.00;;
62151;SDS011;48139;47.474;19.034;2022-11-28T06:34:20;37.85;;;17.87;;
62151;SDS011;48139;47.474;19.034;2022-11-28T06:37:23;39.63;;;18.48;;
62151;SDS011;48139;47.474;19.034;2022-11-28T06:40:26;37.83;;;19.30;;
62151;SDS011;48139;47.474;19.034;2022-11-28T06:43:29;40.47;;;18.25;;
62151;SDS011;48139;47.474;19.034;2022-11-28T06:46:32;39.35;;;19.12;;
62151;SDS011;48139;47.474;19.034;2022-11-28T06:49:34;40.75;;;20.37;;
62151;SDS011;48139;47.474;19.034;2022-11-28T06:52:38;38.38;;;19.37;;
62151;SDS011;48139;47.474;19.034;2022-11-28T06:55:40;42.78;;;18.87;;
62151;SDS011;48139;47.474;19.034;2022-11-28T06:58:44;41.33;;;18.83;;
62151;SDS011;48139;47.474;19.034;2022-11-28T07:01:47;35.53;;;17.02;;
62151;SDS011;48139;47.474;19.034;2022-11-28T07:04:50;39.15;;;18.60;;
62151;SDS011;48139;47.474;19.034;2022-11-28T07:07:53;37.85;;;18.42;;
62151;SDS011;48139;47.474;19.034;2022-11-28T07:10:56;38.60;;;16.50;;
62151;SDS011;48139;47.474;19.034;2022-11-28T07:13:59;33.53;;;14.27;;
62151;SDS011;48139;47.474;19.034;2022-11-28T07:17:03;34.70;;;16.58;;
62151;SDS011;48139;47.474;19.034;2022-11-28T07:20:07;37.00;;;16.30;;
62151;SDS011;48139;47.474;19.034;2022-11-28T07:23:10;36.63;;;17.55;;
62151;SDS011;48139;47.474;19.034;2022-11-28T07:26:13;42.03;;;18.70;;
62151;SDS011;48139;47.474;19.034;2022-11-28T07:29:17;35.30;;;16.35;;
62151;SDS011;48139;47.474;19.034;2022-11-28T07:35:23;37.00;;;16.80;;
62151;SDS011;48139;47.474;19.034;2022-11-28T07:38:25;35.22;;;17.77;;
62151;SDS011;48139;47.474;19.034;2022-11-28T07:41:29;39.42;;;17.83;;
62151;SDS011;48139;47.474;19.034;2022-11-28T07:44:31;32.10;;;14.77;;
62151;SDS011;48139;47.474;19.034;2022-11-28T07:47:34;36.10;;;15.60;;
62151;SDS011;48139;47.474;19.034;2022-11-28T07:50:37;26.23;;;13.93;;
62151;SDS011;48139;47.474;19.034;2022-11-28T07:53:41;41.63;;;17.52;;
62151;SDS011;48139;47.474;19.034;2022-11-28T08:00:07;31.95;;;16.70;;
62151;SDS011;48139;47.474;19.034;2022-11-28T08:03:13;29.98;;;14.60;;
62151;SDS011;48139;47.474;19.034;2022-11-28T08:06:16;32.67;;;18.87;;
62151;SDS011;48139;47.474;19.034;2022-11-28T08:09:20;36.33;;;17.23;;
62151;SDS011;48139;47.474;19.034;2022-11-28T08:12:23;33.33;;;15.07;;
62151;SDS011;48139;47.474;19.034;2022-11-28T08:15:25;26.62;;;14.20;;
62151;SDS011;48139;47.474;19.034;2022-11-28T08:18:33;26.23;;;16.45;;
62151;SDS011;48139;47.474;19.034;2022-11-28T08:24:38;29.30;;;15.35;;
62151;SDS011;48139;47.474;19.034;2022-11-28T08:27:40;30.23;;;13.57;;
62151;SDS011;48139;47.474;19.034;2022-11-28T08:30:46;31.60;;;16.73;;
62151;SDS011;48139;47.474;19.034;2022-11-28T08:33:50;27.17;;;13.40;;
62151;SDS011;48139;47.474;19.034;2022-11-28T08:36:53;24.70;;;13.13;;
62151;SDS011;48139;47.474;19.034;2022-11-28T08:39:56;24.67;;;14.07;;
62151;SDS011;48139;47.474;19.034;2022-11-28T08:42:59;26.77;;;12.88;;
62151;SDS011;48139;47.474;19.034;2022-11-28T08:46:05;28.17;;;13.88;;
62151;SDS011;48139;47.474;19.034;2022-11-28T08:49:10;26.00;;;13.15;;
62151;SDS011;48139;47.474;19.034;2022-11-28T08:52:12;19.98;;;11.48;;
62151;SDS011;48139;47.474;19.034;2022-11-28T08:55:15;18.87;;;8.80;;
62151;SDS011;48139;47.474;19.034;2022-11-28T08:58:17;15.85;;;8.75;;
62151;SDS011;48139;47.474;19.034;2022-11-28T09:01:21;18.58;;;9.18;;
62151;SDS011;48139;47.474;19.034;2022-11-28T09:04:25;23.10;;;10.60;;
62151;SDS011;48139;47.474;19.034;2022-11-28T09:07:28;21.27;;;12.05;;
62151;SDS011;48139;47.474;19.034;2022-11-28T09:10:34;22.65;;;10.80;;
62151;SDS011;48139;47.474;19.034;2022-11-28T09:13:38;19.33;;;10.30;;
62151;SDS011;48139;47.474;19.034;2022-11-28T09:16:41;18.30;;;8.33;;
62151;SDS011;48139;47.474;19.034;2022-11-28T09:19:43;21.13;;;11.00;;
62151;SDS011;48139;47.474;19.034;2022-11-28T09:22:46;25.53;;;12.20;;
62151;SDS011;48139;47.474;19.034;2022-11-28T09:25:48;23.38;;;11.90;;
62151;SDS011;48139;47.474;19.034;2022-11-28T09:28:51;27.55;;;12.23;;
62151;SDS011;48139;47.474;19.034;2022-11-28T09:31:54;24.48;;;12.25;;
62151;SDS011;48139;47.474;19.034;2022-11-28T09:34:57;24.02;;;12.20;;
62151;SDS011;48139;47.474;19.034;2022-11-28T09:37:59;20.17;;;10.63;;
62151;SDS011;48139;47.474;19.034;2022-11-28T09:41:12;25.30;;;11.65;;
62151;SDS011;48139;47.474;19.034;2022-11-28T09:44:36;22.85;;;10.70;;
62151;SDS011;48139;47.474;19.034;2022-11-28T09:47:53;25.08;;;12.05;;
62151;SDS011;48139;47.474;19.034;2022-11-28T09:51:00;28.25;;;13.30;;
62151;SDS011;48139;47.474;19.034;2022-11-28T09:54:16;27.05;;;11.50;;
62151;SDS011;48139;47.474;19.034;2022-11-28T09:57:35;24.83;;;12.05;;
62151;SDS011;48139;47.474;19.034;2022-11-28T10:00:58;26.87;;;11.25;;
62151;SDS011;48139;47.474;19.034;2022-11-28T10:04:15;24.35;;;12.20;;
62151;SDS011;48139;47.474;19.034;2022-11-28T10:14:42;22.87;;;12.40;;
62151;SDS011;48139;47.474;19.034;2022-11-28T10:24:52;22.58;;;11.55;;
62151;SDS011;48139;47.474;19.034;2022-11-28T10:27:58;23.12;;;13.07;;
62151;SDS011;48139;47.474;19.034;2022-11-28T10:31:05;22.50;;;12.40;;
62151;SDS011;48139;47.474;19.034;2022-11-28T10:34:18;25.60;;;13.05;;
62151;SDS011;48139;47.474;19.034;2022-11-28T10:37:41;26.40;;;12.75;;
62151;SDS011;48139;47.474;19.034;2022-11-28T10:40:49;28.90;;;15.00;;
62151;SDS011;48139;47.474;19.034;2022-11-28T10:47:35;30.85;;;14.25;;
62151;SDS011;48139;47.474;19.034;2022-11-28T10:57:16;28.20;;;13.50;;
62151;SDS011;48139;47.474;19.034;2022-11-28T11:00:25;29.10;;;13.10;;
62151;SDS011;48139;47.474;19.034;2022-11-28T11:03:28;29.10;;;14.10;;
62151;SDS011;48139;47.474;19.034;2022-11-28T11:06:33;28.05;;;13.73;;
62151;SDS011;48139;47.474;19.034;2022-11-28T11:09:49;29.30;;;17.12;;
62151;SDS011;48139;47.474;19.034;2022-11-28T11:12:52;25.92;;;15.38;;
62151;SDS011;48139;47.474;19.034;2022-11-28T11:15:56;26.33;;;14.07;;
62151;SDS011;48139;47.474;19.034;2022-11-28T11:19:02;30.20;;;12.95;;
62151;SDS011;48139;47.474;19.034;2022-11-28T11:22:06;25.12;;;14.02;;
62151;SDS011;48139;47.474;19.034;2022-11-28T11:25:20;29.98;;;15.55;;
62151;SDS011;48139;47.474;19.034;2022-11-28T11:28:42;34.93;;;16.67;;
62151;SDS011;48139;47.474;19.034;2022-11-28T11:31:49;25.80;;;11.93;;
62151;SDS011;48139;47.474;19.034;2022-11-28T11:34:54;28.45;;;14.95;;
62151;SDS011;48139;47.474;19.034;2022-11-28T11:41:26;30.40;;;13.70;;
62151;SDS011;48139;47.474;19.034;2022-11-28T11:44:31;32.13;;;16.52;;
62151;SDS011;48139;47.474;19.034;2022-11-28T11:47:41;29.95;;;15.32;;
62151;SDS011;48139;47.474;19.034;2022-11-28T11:50:52;30.37;;;14.10;;
62151;SDS011;48139;47.474;19.034;2022-11-28T11:54:14;27.13;;;15.80;;
62151;SDS011;48139;47.474;19.034;2022-11-28T11:57:20;32.17;;;16.87;;
62151;SDS011;48139;47.474;19.034;2022-11-28T12:00:39;29.23;;;15.82;;
62151;SDS011;48139;47.474;19.034;2022-11-28T12:10:51;28.60;;;13.60;;
62151;SDS011;48139;47.474;19.034;2022-11-28T12:14:22;38.65;;;14.87;;
62151;SDS011;48139;47.474;19.034;2022-11-28T12:21:27;38.25;;;16.95;;
62151;SDS011;48139;47.474;19.034;2022-11-28T12:27:59;36.28;;;15.88;;
62151;SDS011;48139;47.474;19.034;2022-11-28T12:31:11;28.20;;;14.45;;
62151;SDS011;48139;47.474;19.034;2022-11-28T12:42:07;32.42;;;15.60;;
62151;SDS011;48139;47.474;19.034;2022-11-28T12:45:33;39.05;;;15.65;;
62151;SDS011;48139;47.474;19.034;2022-11-28T12:48:40;32.00;;;15.55;;
62151;SDS011;48139;47.474;19.034;2022-11-28T12:52:12;32.88;;;16.20;;
62151;SDS011;48139;47.474;19.034;2022-11-28T12:59:18;32.88;;;16.62;;
62151;SDS011;48139;47.474;19.034;2022-11-28T13:02:34;29.00;;;14.10;;
62151;SDS011;48139;47.474;19.034;2022-11-28T13:09:22;35.03;;;16.85;;
62151;SDS011;48139;47.474;19.034;2022-11-28T13:12:40;32.83;;;17.90;;
62151;SDS011;48139;47.474;19.034;2022-11-28T13:22:34;32.55;;;16.92;;
62151;SDS011;48139;47.474;19.034;2022-11-28T13:26:04;30.55;;;15.02;;
62151;SDS011;48139;47.474;19.034;2022-11-28T13:29:20;30.10;;;15.52;;
62151;SDS011;48139;47.474;19.034;2022-11-28T13:35:47;30.23;;;14.70;;
62151;SDS011;48139;47.474;19.034;2022-11-28T13:39:07;33.22;;;16.27;;
62151;SDS011;48139;47.474;19.034;2022-11-28T13:42:28;38.20;;;18.48;;
62151;SDS011;48139;47.474;19.034;2022-11-28T13:45:52;31.63;;;15.57;;
62151;SDS011;48139;47.474;19.034;2022-11-28T13:48:58;35.78;;;17.42;;
62151;SDS011;48139;47.474;19.034;2022-11-28T13:55:46;36.08;;;16.10;;
62151;SDS011;48139;47.474;19.034;2022-11-28T13:59:09;33.20;;;15.57;;
62151;SDS011;48139;47.474;19.034;2022-11-28T14:02:22;31.10;;;16.95;;
62151;SDS011;48139;47.474;19.034;2022-11-28T14:05:35;27.62;;;15.63;;
62151;SDS011;48139;47.474;19.034;2022-11-28T14:08:43;32.95;;;14.80;;
62151;SDS011;48139;47.474;19.034;2022-11-28T14:18:57;33.50;;;17.12;;
62151;SDS011;48139;47.474;19.034;2022-11-28T14:22:37;39.40;;;16.77;;
62151;SDS011;48139;47.474;19.034;2022-11-28T14:25:45;30.80;;;17.48;;
62151;SDS011;48139;47.474;19.034;2022-11-28T14:28:50;32.33;;;17.45;;
62151;SDS011;48139;47.474;19.034;2022-11-28T14:31:55;32.28;;;17.15;;
62151;SDS011;48139;47.474;19.034;2022-11-28T14:39:03;33.03;;;16.73;;
62151;SDS011;48139;47.474;19.034;2022-11-28T14:45:38;28.98;;;13.57;;
62151;SDS011;48139;47.474;19.034;2022-11-28T14:52:06;35.30;;;18.05;;
62151;SDS011;48139;47.474;19.034;2022-11-28T14:55:38;36.55;;;17.52;;
62151;SDS011;48139;47.474;19.034;2022-11-28T14:58:46;43.83;;;17.12;;
62151;SDS011;48139;47.474;19.034;2022-11-28T15:01:54;32.30;;;15.40;;
62151;SDS011;48139;47.474;19.034;2022-11-28T15:15:12;36.10;;;16.55;;
62151;SDS011;48139;47.474;19.034;2022-11-28T15:18:19;33.47;;;16.58;;
62151;SDS011;48139;47.474;19.034;2022-11-28T15:21:23;39.13;;;18.67;;
62151;SDS011;48139;47.474;19.034;2022-11-28T15:24:36;36.77;;;17.17;;
62151;SDS011;48139;47.474;19.034;2022-11-28T15:27:39;35.78;;;17.08;;
62151;SDS011;48139;47.474;19.034;2022-11-28T15:30:45;41.63;;;19.48;;
62151;SDS011;48139;47.474;19.034;2022-11-28T15:33:51;36.88;;;18.48;;
62151;SDS011;48139;47.474;19.034;2022-11-28T15:36:54;31.52;;;17.23;;
62151;SDS011;48139;47.474;19.034;2022-11-28T15:40:00;33.90;;;16.40;;
62151;SDS011;48139;47.474;19.034;2022-11-28T15:43:11;35.22;;;17.33;;
62151;SDS011;48139;47.474;19.034;2022-11-28T15:46:37;33.97;;;15.60;;
62151;SDS011;48139;47.474;19.034;2022-11-28T15:49:39;43.30;;;19.73;;
62151;SDS011;48139;47.474;19.034;2022-11-28T15:56:06;33.72;;;17.23;;
62151;SDS011;48139;47.474;19.034;2022-11-28T15:59:09;34.42;;;18.48;;
62151;SDS011;48139;47.474;19.034;2022-11-28T16:02:33;33.05;;;19.20;;
62151;SDS011;48139;47.474;19.034;2022-11-28T16:08:44;39.33;;;18.77;;
62151;SDS011;48139;47.474;19.034;2022-11-28T16:11:52;34.42;;;17.80;;
62151;SDS011;48139;47.474;19.034;2022-11-28T16:14:55;31.92;;;17.90;;
62151;SDS011;48139;47.474;19.034;2022-11-28T16:18:03;41.92;;;18.87;;
62151;SDS011;48139;47.474;19.034;2022-11-28T16:21:06;33.47;;;17.70;;
62151;SDS011;48139;47.474;19.034;2022-11-28T16:24:31;33.28;;;16.15;;
62151;SDS011;48139;47.474;19.034;2022-11-28T16:27:40;35.13;;;19.35;;
62151;SDS011;48139;47.474;19.034;2022-11-28T16:30:46;37.95;;;18.48;;
62151;SDS011;48139;47.474;19.034;2022-11-28T16:33:49;34.95;;;18.75;;
62151;SDS011;48139;47.474;19.034;2022-11-28T16:36:51;42.95;;;18.23;;
62151;SDS011;48139;47.474;19.034;2022-11-28T16:39:58;33.47;;;16.70;;
62151;SDS011;48139;47.474;19.034;2022-11-28T16:43:01;43.72;;;20.70;;
62151;SDS011;48139;47.474;19.034;2022-11-28T16:46:06;42.55;;;20.00;;
